createdAt,value
2019-05-13T00:01:06.826Z,77.20
2019-05-13T00:03:33.745Z,77.30
2019-05-13T00:06:06.063Z,77.40
2019-05-13T00:08:37.753Z,77.80
2019-05-13T00:11:08.898Z,77.50
2019-05-13T00:13:40.235Z,76.70
2019-05-13T00:16:11.376Z,77.20
2019-05-13T00:18:44.338Z,77.50
2019-05-13T00:21:15.104Z,77.80
2019-05-13T00:23:46.080Z,77.20
2019-05-13T00:26:18.287Z,76.60
2019-05-13T00:28:53.418Z,76.70
2019-05-13T00:31:24.292Z,76.70
2019-05-13T00:33:55.589Z,76.50
2019-05-13T00:36:26.496Z,75.90
2019-05-13T00:38:58.550Z,76.30
2019-05-13T00:41:29.813Z,75.80
2019-05-13T00:44:01.231Z,76.30
2019-05-13T00:46:34.015Z,76.00
2019-05-13T00:49:04.927Z,75.70
2019-05-13T00:51:39.186Z,75.80
2019-05-13T00:54:09.835Z,75.70
2019-05-13T01:02:53.360Z,75.10
2019-05-13T01:05:24.705Z,75.10
2019-05-13T01:07:58.095Z,75.00
2019-05-13T01:10:29.233Z,74.70
2019-05-13T01:13:05.822Z,74.50
2019-05-13T01:15:37.244Z,74.30
2019-05-13T01:18:09.577Z,74.30
2019-05-13T01:20:43.075Z,74.10
2019-05-13T01:23:15.065Z,73.80
2019-05-13T01:25:46.606Z,73.50
2019-05-13T01:28:17.867Z,73.40
2019-05-13T01:30:50.860Z,73.30
2019-05-13T01:33:23.518Z,73.30
2019-05-13T01:35:58.477Z,73.00
2019-05-13T01:38:30.601Z,72.80
2019-05-13T01:41:04.262Z,72.80
2019-05-13T01:43:36.089Z,72.30
2019-05-13T01:46:07.447Z,72.20
2019-05-13T01:48:39.014Z,71.30
2019-05-13T01:51:10.846Z,71.50
2019-05-13T01:53:45.085Z,71.40
2019-05-13T01:56:16.289Z,70.90
2019-05-13T01:58:47.602Z,70.90
2019-05-13T02:01:19.078Z,69.20
2019-05-13T02:03:54.557Z,69.30
2019-05-13T02:06:26.909Z,69.40
2019-05-13T02:08:58.124Z,69.30
2019-05-13T02:11:36.597Z,69.50
2019-05-13T02:14:10.623Z,69.50
2019-05-13T02:16:46.102Z,69.20
2019-05-13T02:19:19.059Z,69.60
2019-05-13T02:21:54.145Z,69.60
2019-05-13T02:24:27.079Z,67.70
2019-05-13T02:26:58.231Z,67.40
2019-05-13T02:29:38.527Z,67.50
2019-05-13T02:32:13.287Z,68.00
2019-05-13T02:34:45.490Z,67.80
2019-05-13T02:37:17.061Z,68.00
2019-05-13T02:39:48.072Z,67.40
2019-05-13T02:42:22.611Z,68.10
2019-05-13T02:44:52.937Z,67.30
2019-05-13T02:47:24.746Z,67.30
2019-05-13T02:50:00.859Z,67.20
2019-05-13T02:52:47.468Z,67.10
2019-05-13T02:55:22.166Z,66.20
2019-05-13T02:57:52.813Z,66.80
2019-05-13T03:03:39.516Z,66.70
2019-05-13T03:06:13.062Z,66.40
2019-05-13T03:08:49.449Z,65.80
2019-05-13T03:11:16.302Z,66.40
2019-05-13T03:13:52.625Z,66.00
2019-05-13T03:16:23.754Z,65.30
2019-05-13T03:18:55.148Z,65.30
2019-05-13T03:21:26.306Z,66.70
2019-05-13T03:23:57.558Z,64.60
2019-05-13T03:26:32.007Z,64.70
2019-05-13T03:29:04.529Z,64.30
2019-05-13T03:31:36.941Z,62.90
2019-05-13T03:34:08.547Z,63.90
2019-05-13T03:36:45.744Z,64.40
2019-05-13T03:39:16.673Z,61.50
2019-05-13T03:41:52.744Z,62.50
2019-05-13T03:44:26.991Z,63.80
2019-05-13T03:46:59.483Z,63.60
2019-05-13T03:49:33.443Z,63.30
2019-05-13T03:52:05.511Z,61.10
2019-05-13T03:54:39.413Z,62.30
2019-05-13T03:57:12.638Z,62.50
2019-05-13T03:59:43.849Z,60.50
2019-05-13T04:02:15.824Z,61.10
2019-05-13T04:04:47.094Z,62.50
2019-05-13T04:07:23.521Z,61.80
2019-05-13T04:09:52.447Z,62.00
2019-05-13T04:12:28.324Z,62.10
2019-05-13T04:14:59.299Z,61.70
2019-05-13T04:17:33.346Z,60.90
2019-05-13T04:20:04.765Z,62.60
2019-05-13T04:22:38.324Z,62.50
2019-05-13T04:25:12.439Z,60.60
2019-05-13T04:27:43.041Z,60.90
2019-05-13T04:30:18.277Z,59.40
2019-05-13T04:32:53.038Z,60.50
2019-05-13T04:35:23.491Z,58.80
2019-05-13T04:37:56.851Z,59.00
2019-05-13T04:40:28.608Z,59.80
2019-05-13T04:43:02.960Z,61.00
2019-05-13T04:45:33.558Z,61.10
2019-05-13T04:48:05.323Z,60.00
2019-05-13T04:50:36.677Z,58.40
2019-05-13T04:53:08.092Z,59.00
2019-05-13T04:55:52.606Z,58.40
2019-05-13T04:58:24.240Z,59.50
2019-05-13T05:01:04.701Z,60.20
2019-05-13T05:03:41.326Z,58.80
2019-05-13T05:06:12.002Z,61.80
2019-05-13T05:08:47.602Z,61.30
2019-05-13T05:11:22.315Z,62.40
2019-05-13T05:13:56.829Z,61.80
2019-05-13T05:16:32.551Z,60.30
2019-05-13T05:19:06.356Z,59.00
2019-05-13T05:21:41.752Z,58.40
2019-05-13T05:24:15.020Z,57.90
2019-05-13T05:26:48.716Z,59.00
2019-05-13T05:29:32.062Z,59.90
2019-05-13T05:32:06.061Z,57.60
2019-05-13T05:34:41.818Z,58.00
2019-05-13T05:37:21.800Z,58.80
2019-05-13T05:39:55.922Z,58.30
2019-05-13T05:42:29.222Z,60.00
2019-05-13T05:45:02.807Z,57.10
2019-05-13T05:47:35.415Z,58.20
2019-05-13T05:50:07.476Z,57.80
2019-05-13T05:52:41.935Z,58.40
2019-05-13T05:55:13.207Z,58.20
2019-05-13T05:57:45.132Z,58.30
2019-05-13T06:00:18.661Z,59.90
2019-05-13T06:02:58.180Z,57.70
2019-05-13T06:09:33.033Z,55.60
2019-05-13T06:12:05.038Z,58.00
2019-05-13T06:14:36.790Z,58.80
2019-05-13T06:17:07.807Z,59.70
2019-05-13T06:19:41.890Z,59.40
2019-05-13T06:22:14.140Z,59.60
2019-05-13T06:24:45.443Z,59.80
2019-05-13T06:27:17.393Z,60.30
2019-05-13T06:29:52.555Z,60.50
2019-05-13T06:32:26.120Z,59.80
2019-05-13T06:34:57.284Z,60.40
2019-05-13T06:37:32.070Z,60.90
2019-05-13T06:40:03.657Z,60.50
2019-05-13T06:42:34.839Z,60.60
2019-05-13T06:45:07.598Z,59.50
2019-05-13T06:47:41.151Z,59.80
2019-05-13T06:50:12.143Z,59.30
2019-05-13T06:52:45.137Z,59.20
2019-05-13T06:55:16.572Z,59.50
2019-05-13T06:57:51.701Z,59.70
2019-05-13T07:00:22.797Z,60.10
2019-05-13T07:02:54.110Z,60.20
2019-05-13T07:05:25.224Z,60.70
2019-05-13T07:07:56.221Z,60.70
2019-05-13T07:10:32.110Z,60.60
2019-05-13T07:13:03.076Z,60.00
2019-05-13T07:15:35.461Z,60.70
2019-05-13T07:18:07.661Z,61.00
2019-05-13T07:20:38.631Z,61.40
2019-05-13T07:23:11.941Z,61.50
2019-05-13T07:25:42.378Z,61.60
2019-05-13T07:35:08.470Z,62.80
2019-05-13T07:37:42.457Z,63.40
2019-05-13T07:40:14.023Z,63.80
2019-05-13T07:42:45.263Z,64.00
2019-05-13T07:45:17.555Z,64.00
2019-05-13T07:47:48.622Z,64.30
2019-05-13T07:50:21.672Z,64.40
2019-05-13T07:52:52.375Z,64.30
2019-05-13T07:55:23.493Z,64.40
2019-05-13T07:57:54.560Z,64.20
2019-05-13T08:00:26.047Z,64.40
2019-05-13T08:02:57.343Z,64.60
2019-05-13T08:05:31.289Z,64.40
2019-05-13T08:08:02.224Z,64.50
2019-05-13T08:10:36.632Z,64.70
2019-05-13T08:13:11.878Z,64.80
2019-05-13T08:15:43.552Z,65.40
2019-05-13T08:18:16.748Z,65.40
2019-05-13T08:20:48.689Z,65.30
2019-05-13T08:23:21.681Z,65.10
2019-05-13T08:25:59.086Z,65.20
2019-05-13T08:28:32.356Z,65.30
2019-05-13T08:31:02.968Z,65.40
2019-05-13T08:33:36.129Z,65.30
2019-05-13T08:36:07.683Z,64.90
2019-05-13T08:38:42.914Z,64.70
2019-05-13T08:41:18.947Z,64.40
2019-05-13T08:43:46.930Z,64.30
2019-05-13T08:46:18.178Z,64.60
2019-05-13T08:48:51.598Z,64.30
2019-05-13T08:51:22.098Z,64.20
2019-05-13T08:53:53.377Z,64.00
2019-05-13T08:56:24.174Z,63.90
2019-05-13T08:58:55.164Z,63.90
2019-05-13T09:01:31.751Z,63.90
2019-05-13T09:04:02.698Z,63.80
2019-05-13T09:06:33.846Z,63.80
2019-05-13T09:09:05.475Z,64.00
2019-05-13T09:11:36.452Z,63.70
2019-05-13T09:14:08.192Z,64.00
2019-05-13T09:16:41.681Z,63.90
2019-05-13T09:19:15.855Z,63.90
2019-05-13T09:21:44.069Z,63.80
2019-05-13T09:24:25.423Z,63.90
2019-05-13T09:26:48.332Z,63.90
2019-05-13T09:29:19.448Z,63.50
2019-05-13T09:31:52.313Z,63.50
2019-05-13T09:34:23.533Z,63.50
2019-05-13T09:36:54.635Z,63.50
2019-05-13T09:39:29.056Z,63.70
2019-05-13T09:42:02.310Z,63.70
2019-05-13T09:44:33.128Z,63.60
2019-05-13T09:47:04.494Z,63.90
2019-05-13T09:49:35.331Z,64.00
2019-05-13T09:52:11.750Z,63.50
2019-05-13T09:54:42.464Z,63.90
2019-05-13T09:57:14.167Z,63.80
2019-05-13T09:59:46.768Z,63.60
2019-05-13T10:02:21.329Z,63.20
2019-05-13T10:04:52.725Z,63.30
2019-05-13T10:07:24.924Z,63.70
2019-05-13T10:10:01.666Z,63.90
2019-05-13T10:13:07.841Z,64.10
2019-05-13T10:15:32.328Z,64.10
2019-05-13T10:18:03.426Z,64.40
2019-05-13T10:20:37.313Z,65.30
2019-05-13T10:23:12.384Z,65.80
2019-05-13T10:25:47.598Z,65.80
2019-05-13T10:28:21.619Z,67.00
2019-05-13T10:30:56.038Z,66.70
2019-05-13T10:33:27.531Z,66.90
2019-05-13T10:35:58.930Z,66.90
2019-05-13T10:38:32.293Z,67.00
2019-05-13T10:41:03.449Z,66.80
2019-05-13T10:43:40.262Z,66.80
2019-05-13T10:46:07.404Z,67.20
2019-05-13T10:48:41.707Z,67.70
2019-05-13T10:51:13.295Z,67.30
2019-05-13T10:53:45.862Z,69.00
2019-05-13T10:56:16.899Z,67.80
2019-05-13T10:58:47.921Z,67.50
2019-05-13T11:01:22.314Z,70.30
2019-05-13T11:03:52.341Z,70.60
2019-05-13T11:06:23.942Z,70.60
2019-05-13T11:08:55.042Z,70.00
2019-05-13T11:11:27.782Z,70.00
2019-05-13T11:14:10.866Z,70.10
2019-05-13T11:16:38.369Z,70.50
2019-05-13T11:19:11.394Z,70.40
2019-05-13T11:21:43.390Z,70.60
2019-05-13T11:24:14.651Z,71.60
2019-05-13T11:26:47.058Z,71.00
2019-05-13T11:29:17.977Z,71.30
2019-05-13T11:31:52.044Z,70.70
2019-05-13T11:34:22.067Z,70.20
2019-05-13T11:36:54.510Z,71.00
2019-05-13T11:39:25.558Z,70.70
2019-05-13T11:41:56.783Z,71.00
2019-05-13T11:44:27.845Z,71.00
2019-05-13T11:47:02.342Z,71.00
2019-05-13T11:49:36.835Z,70.80
2019-05-13T11:52:08.241Z,70.60
2019-05-13T11:54:42.243Z,70.80
2019-05-13T11:57:12.523Z,70.50
2019-05-13T11:59:43.969Z,70.90
2019-05-13T12:02:14.833Z,71.00
2019-05-13T12:04:46.833Z,71.10
2019-05-13T12:07:18.079Z,71.00
2019-05-13T12:09:51.296Z,72.30
2019-05-13T12:12:30.496Z,71.80
2019-05-13T12:15:22.489Z,71.20
2019-05-13T12:17:29.249Z,71.90
2019-05-13T12:20:03.112Z,71.60
2019-05-13T12:22:32.620Z,71.80
2019-05-13T12:25:06.760Z,71.70
2019-05-13T12:27:37.775Z,72.30
2019-05-13T12:30:12.012Z,72.00
2019-05-13T12:32:43.936Z,72.80
2019-05-13T12:35:15.652Z,72.30
2019-05-13T12:37:46.682Z,72.50
2019-05-13T12:40:18.438Z,72.60
2019-05-13T12:42:53.153Z,71.50
2019-05-13T12:45:23.399Z,71.00
2019-05-13T12:47:54.203Z,71.10
2019-05-13T12:50:26.014Z,71.60
2019-05-13T12:52:57.249Z,71.50
2019-05-13T12:55:28.233Z,72.10
2019-05-13T12:58:02.720Z,72.10
2019-05-13T13:00:33.122Z,72.50
2019-05-13T13:03:04.284Z,72.50
2019-05-13T13:05:37.114Z,72.40
2019-05-13T13:08:24.486Z,72.40
2019-05-13T13:10:42.352Z,72.00
2019-05-13T13:13:41.555Z,73.00
2019-05-13T13:15:56.095Z,72.10
2019-05-13T13:18:28.416Z,72.50
2019-05-13T13:21:02.236Z,72.40
2019-05-13T13:23:34.176Z,72.30
2019-05-13T13:26:13.714Z,72.90
2019-05-13T13:28:37.514Z,74.70
2019-05-13T13:31:08.839Z,74.00
2019-05-13T13:33:43.415Z,74.10
2019-05-13T13:36:15.422Z,75.00
2019-05-13T13:38:46.510Z,73.60
2019-05-13T13:41:22.612Z,74.20
2019-05-13T13:43:53.480Z,74.00
2019-05-13T13:46:33.927Z,74.30
2019-05-13T13:48:55.938Z,74.00
2019-05-13T13:51:27.440Z,76.50
2019-05-13T13:53:58.819Z,76.30
2019-05-13T13:56:32.566Z,75.30
2019-05-13T13:59:04.373Z,74.20
2019-05-13T14:01:34.845Z,74.70
2019-05-13T14:04:05.911Z,75.90
2019-05-13T14:09:11.891Z,75.80
2019-05-13T14:11:42.115Z,75.20
2019-05-13T14:14:13.155Z,73.90
2019-05-13T14:16:46.611Z,74.70
2019-05-13T14:19:16.766Z,74.90
2019-05-13T14:21:48.641Z,77.00
2019-05-13T14:24:21.645Z,75.70
2019-05-13T14:26:52.471Z,77.30
2019-05-13T14:29:37.391Z,75.30
2019-05-13T14:31:57.063Z,75.30
2019-05-13T14:34:28.222Z,76.60
2019-05-13T14:37:01.121Z,76.70
2019-05-13T14:39:31.971Z,77.70
2019-05-13T14:42:04.377Z,77.70
2019-05-13T14:44:35.399Z,76.00
2019-05-13T14:47:06.748Z,78.00
2019-05-13T14:49:38.695Z,77.00
2019-05-13T14:52:11.250Z,77.70
2019-05-13T14:54:42.395Z,79.30
2019-05-13T14:57:14.934Z,77.20
2019-05-13T14:59:46.408Z,79.40
2019-05-13T15:02:17.318Z,80.40
2019-05-13T15:04:48.493Z,78.70
2019-05-13T15:07:21.608Z,80.20
2019-05-13T15:09:52.039Z,80.60
2019-05-13T15:12:23.323Z,80.20
2019-05-13T15:14:54.164Z,79.40
2019-05-13T15:17:25.227Z,79.30
2019-05-13T15:19:56.391Z,80.50
2019-05-13T15:22:27.951Z,79.70
2019-05-13T15:24:58.907Z,81.10
2019-05-13T15:27:31.670Z,81.00
2019-05-13T15:30:16.761Z,81.90
2019-05-13T15:32:35.374Z,81.40
2019-05-13T15:35:10.069Z,82.50
2019-05-13T15:37:41.751Z,82.90
2019-05-13T15:40:12.991Z,82.50
2019-05-13T15:42:44.148Z,82.50
2019-05-13T15:45:15.181Z,83.40
2019-05-13T15:47:46.259Z,82.20
2019-05-13T15:50:17.435Z,82.00
2019-05-13T15:52:48.419Z,82.70
2019-05-13T15:55:21.172Z,82.10
2019-05-13T15:57:51.983Z,82.50
2019-05-13T16:00:23.654Z,83.50
2019-05-13T16:02:54.720Z,83.80
2019-05-13T16:05:26.062Z,84.10
2019-05-13T16:07:57.104Z,83.20
2019-05-13T16:10:28.053Z,82.40
2019-05-13T16:12:59.083Z,84.30
2019-05-13T16:15:32.120Z,83.80
2019-05-13T16:18:02.652Z,84.20
2019-05-13T16:20:33.777Z,83.50
2019-05-13T16:23:04.803Z,84.40
2019-05-13T16:25:36.085Z,84.70
2019-05-13T16:28:07.327Z,85.00
2019-05-13T16:30:38.303Z,84.20
2019-05-13T16:33:12.034Z,84.50
2019-05-13T16:35:42.455Z,84.60
2019-05-13T16:38:13.688Z,83.90
2019-05-13T16:40:44.979Z,83.60
2019-05-13T16:43:16.181Z,83.40
2019-05-13T16:45:47.145Z,84.20
2019-05-13T16:48:18.118Z,84.10
2019-05-13T16:50:49.399Z,84.20
2019-05-13T16:53:25.525Z,85.70
2019-05-13T16:55:53.177Z,85.90
2019-05-13T16:58:24.929Z,85.50
2019-05-13T17:00:56.304Z,85.50
2019-05-13T17:03:27.389Z,85.30
2019-05-13T17:05:58.535Z,85.40
2019-05-13T17:08:31.628Z,86.10
2019-05-13T17:11:02.432Z,85.80
2019-05-13T17:13:36.163Z,85.20
2019-05-13T17:16:07.265Z,85.20
2019-05-13T17:18:38.301Z,85.60
2019-05-13T17:21:09.235Z,84.60
2019-05-13T17:23:41.876Z,85.30
2019-05-13T17:26:12.694Z,85.60
2019-05-13T17:28:43.917Z,84.70
2019-05-13T17:31:15.019Z,83.80
2019-05-13T17:33:46.114Z,83.40
2019-05-13T17:36:17.162Z,84.70
2019-05-13T17:38:48.000Z,86.40
2019-05-13T17:41:21.247Z,84.40
2019-05-13T17:43:51.941Z,83.80
2019-05-13T17:46:22.792Z,85.80
2019-05-13T17:48:53.701Z,84.70
2019-05-13T17:51:24.842Z,84.50
2019-05-13T17:53:55.891Z,84.40
2019-05-13T17:56:27.104Z,85.50
2019-05-13T17:58:58.393Z,85.90
2019-05-13T18:01:31.593Z,84.10
2019-05-13T18:04:02.434Z,85.10
2019-05-13T18:06:34.118Z,84.20
2019-05-13T18:09:06.524Z,84.60
2019-05-13T18:11:37.629Z,84.90
2019-05-13T18:14:11.213Z,84.30
2019-05-13T18:16:42.004Z,84.00
2019-05-13T18:19:13.278Z,85.30
2019-05-13T18:21:44.465Z,84.60
2019-05-13T18:24:15.745Z,84.30
2019-05-13T18:26:46.792Z,84.70
2019-05-13T18:29:17.901Z,85.20
2019-05-13T18:31:52.241Z,85.80
2019-05-13T18:34:22.478Z,86.80
2019-05-13T18:36:53.472Z,87.70
2019-05-13T18:39:24.950Z,86.30
2019-05-13T18:41:56.026Z,86.00
2019-05-13T18:44:26.962Z,86.80
2019-05-13T18:46:58.250Z,85.40
2019-05-13T18:49:31.330Z,85.60
2019-05-13T18:52:02.011Z,86.20
2019-05-13T18:54:33.161Z,85.90
2019-05-13T18:57:04.278Z,85.70
2019-05-13T18:59:35.326Z,85.90
2019-05-13T19:02:06.523Z,85.50
2019-05-13T19:04:37.712Z,86.30
2019-05-13T19:07:08.664Z,86.10
2019-05-13T19:09:41.577Z,85.10
2019-05-13T19:12:12.109Z,86.10
2019-05-13T19:14:43.232Z,87.20
2019-05-13T19:17:14.283Z,87.20
2019-05-13T19:19:45.653Z,86.70
2019-05-13T19:22:16.652Z,86.40
2019-05-13T19:24:47.688Z,86.30
2019-05-13T19:27:18.934Z,86.20
2019-05-13T19:29:52.380Z,84.90
2019-05-13T19:32:23.832Z,85.90
2019-05-13T19:34:54.918Z,87.10
2019-05-13T19:37:25.891Z,86.00
2019-05-13T19:39:56.801Z,86.30
2019-05-13T19:42:28.219Z,85.30
2019-05-13T19:45:01.742Z,85.70
2019-05-13T19:47:31.858Z,85.90
2019-05-13T19:50:02.958Z,85.30
2019-05-13T19:52:34.108Z,86.00
2019-05-13T19:55:06.207Z,86.70
2019-05-13T19:57:37.545Z,85.70
2019-05-13T20:00:13.399Z,85.40
2019-05-13T20:02:42.345Z,85.90
2019-05-13T20:05:13.488Z,85.90
2019-05-13T20:07:44.435Z,85.50
2019-05-13T20:10:15.797Z,84.90
2019-05-13T20:12:46.993Z,84.70
2019-05-13T20:15:18.647Z,84.90
2019-05-13T20:17:51.971Z,85.10
2019-05-13T20:20:22.201Z,85.20
2019-05-13T20:22:53.221Z,85.40
2019-05-13T20:25:24.073Z,85.50
2019-05-13T20:27:55.420Z,84.80
2019-05-13T20:30:26.780Z,84.70
2019-05-13T20:32:57.575Z,85.60
2019-05-13T20:35:28.776Z,85.50
2019-05-13T20:38:02.014Z,85.60
2019-05-13T20:40:32.335Z,87.60
2019-05-13T20:43:03.549Z,87.10
2019-05-13T20:45:34.623Z,86.00
2019-05-13T20:48:05.882Z,84.90
2019-05-13T20:50:36.721Z,85.50
2019-05-13T20:53:08.068Z,86.00
2019-05-13T20:55:38.975Z,85.90
2019-05-13T20:58:12.525Z,86.30
2019-05-13T21:00:42.446Z,86.40
2019-05-13T21:03:13.842Z,86.40
2019-05-13T21:05:45.165Z,85.70
2019-05-13T21:08:16.243Z,86.00
2019-05-13T21:10:47.476Z,85.20
2019-05-13T21:13:18.653Z,85.80
2019-05-13T21:15:51.684Z,85.10
2019-05-13T21:18:22.334Z,85.50
2019-05-13T21:20:53.344Z,85.60
2019-05-13T21:23:24.310Z,85.20
2019-05-13T21:25:55.350Z,85.30
2019-05-13T21:28:26.360Z,85.60
2019-05-13T21:30:57.357Z,86.00
2019-05-13T21:33:28.744Z,85.80
2019-05-13T21:36:01.738Z,86.30
2019-05-13T21:38:32.681Z,86.40
2019-05-13T21:41:03.928Z,86.40
2019-05-13T21:43:34.992Z,86.40
2019-05-13T21:46:06.075Z,86.90
2019-05-13T21:48:37.066Z,86.80
2019-05-13T21:51:08.236Z,87.20
2019-05-13T21:53:41.260Z,87.20
2019-05-13T21:56:12.280Z,86.70
2019-05-13T21:58:43.344Z,87.00
2019-05-13T22:01:14.426Z,86.40
2019-05-13T22:03:45.565Z,87.60
2019-05-13T22:06:16.830Z,86.10
2019-05-13T22:08:47.910Z,86.70
2019-05-13T22:11:18.801Z,87.00
2019-05-13T22:13:51.387Z,87.00
2019-05-13T22:16:22.435Z,86.50
2019-05-13T22:18:53.506Z,87.00
2019-05-13T22:21:24.517Z,86.40
2019-05-13T22:23:55.699Z,87.10
2019-05-13T22:26:27.008Z,86.80
2019-05-13T22:28:58.139Z,86.40
2019-05-13T22:31:31.079Z,86.00
2019-05-13T22:34:01.538Z,85.70
2019-05-13T22:36:32.506Z,85.80
2019-05-13T22:39:03.729Z,85.00
2019-05-13T22:41:34.882Z,84.70
2019-05-13T22:44:05.927Z,85.70
2019-05-13T22:46:37.210Z,86.10
2019-05-13T22:49:08.437Z,85.80
2019-05-13T22:51:41.244Z,84.70
2019-05-13T22:54:12.136Z,84.40
2019-05-13T22:56:43.432Z,85.40
2019-05-13T22:59:15.126Z,85.20
2019-05-13T23:01:46.129Z,85.20
2019-05-13T23:04:17.659Z,85.70
2019-05-13T23:06:48.837Z,85.80
2019-05-13T23:09:21.580Z,86.10
2019-05-13T23:11:51.952Z,86.60
2019-05-13T23:14:23.647Z,85.60
2019-05-13T23:16:54.641Z,85.50
2019-05-13T23:19:25.832Z,85.30
2019-05-13T23:21:57.166Z,85.20
2019-05-13T23:24:31.180Z,86.10
2019-05-13T23:27:02.324Z,86.90
2019-05-13T23:29:33.345Z,86.70
2019-05-13T23:32:04.710Z,86.90
2019-05-13T23:34:35.696Z,87.50
2019-05-13T23:37:06.865Z,88.10
2019-05-13T23:39:38.043Z,87.10
2019-05-13T23:42:09.162Z,86.40
2019-05-13T23:44:41.475Z,87.90
2019-05-13T23:47:12.680Z,88.20
2019-05-13T23:49:43.623Z,87.50
2019-05-13T23:52:14.758Z,87.60
2019-05-13T23:54:46.237Z,87.10
2019-05-13T23:57:17.276Z,86.70
2019-05-13T23:59:48.416Z,86.50
